Time;durP1;ratioP1;P1;durP2;ratioP2;P2;SDS_P1;SDS_P2;PMS_P1;PMS_P2;Temp;Humidity;BMP_temperature;BMP_pressure;BME280_temperature;BME280_humidity;BME280_pressure;Samples;Min_cycle;Max_cycle;Signal;HPM_P1;HPM_P2
2023/11/25 00:01:05;;;;;;;7.28;1.58;;;2.40;99.90;;;;;;5037171;28;20226;-68
2023/11/25 00:03:33;;;;;;;11.40;1.75;;;2.50;99.90;;;;;;5039425;28;20269;-69
2023/11/25 00:06:02;;;;;;;8.57;1.33;;;2.50;99.90;;;;;;5041401;28;20209;-70
2023/11/25 00:08:29;;;;;;;10.45;1.40;;;2.50;99.90;;;;;;5042101;28;20612;-67
2023/11/25 00:10:57;;;;;;;7.65;1.02;;;2.60;99.90;;;;;;5042183;28;20753;-69
2023/11/25 00:13:27;;;;;;;7.55;1.25;;;2.50;99.90;;;;;;5042555;28;20298;-68
2023/11/25 00:15:55;;;;;;;8.57;1.17;;;2.50;99.90;;;;;;5041114;28;20214;-66
2023/11/25 00:18:23;;;;;;;8.15;1.25;;;2.50;99.90;;;;;;5042043;28;20228;-70
2023/11/25 00:20:51;;;;;;;8.40;1.95;;;2.60;99.90;;;;;;5042413;28;20318;-68
2023/11/25 00:23:19;;;;;;;8.27;1.60;;;2.60;99.90;;;;;;5042719;28;20195;-68
2023/11/25 00:25:47;;;;;;;7.03;1.75;;;2.60;99.90;;;;;;5041346;28;20204;-69
2023/11/25 00:28:16;;;;;;;6.72;1.50;;;2.60;99.90;;;;;;5043144;28;20209;-68
2023/11/25 00:30:46;;;;;;;6.70;1.30;;;2.60;99.90;;;;;;5046003;28;20228;-67
2023/11/25 00:33:14;;;;;;;6.60;1.20;;;2.70;99.90;;;;;;5045826;28;20261;-68
2023/11/25 00:35:42;;;;;;;8.63;1.45;;;2.70;99.90;;;;;;5045622;28;20205;-67
2023/11/25 00:38:10;;;;;;;7.68;1.27;;;2.70;99.90;;;;;;5045332;28;20230;-68
2023/11/25 00:40:38;;;;;;;7.30;0.90;;;2.80;99.90;;;;;;5046103;28;20844;-70
2023/11/25 00:43:07;;;;;;;8.05;0.93;;;2.70;99.90;;;;;;5044988;28;20212;-68
2023/11/25 00:45:35;;;;;;;7.93;0.93;;;2.80;99.90;;;;;;5045362;28;20291;-68
2023/11/25 00:48:06;;;;;;;8.88;1.73;;;2.80;99.90;;;;;;5036672;28;20221;-67
2023/11/25 00:50:34;;;;;;;8.82;1.23;;;2.80;99.90;;;;;;5040247;28;20741;-64
2023/11/25 00:53:02;;;;;;;7.00;1.10;;;2.80;99.90;;;;;;5045630;28;20221;-69
2023/11/25 00:55:30;;;;;;;6.40;0.77;;;2.80;99.90;;;;;;5045441;28;20198;-68
2023/11/25 00:57:59;;;;;;;8.23;1.00;;;2.80;99.90;;;;;;5044540;28;20226;-68
2023/11/25 01:00:28;;;;;;;8.60;0.93;;;2.80;99.90;;;;;;5041872;28;20273;-66
2023/11/25 01:02:56;;;;;;;6.90;0.80;;;2.80;99.90;;;;;;5044521;28;20216;-68
2023/11/25 01:05:25;;;;;;;6.50;0.80;;;2.80;99.90;;;;;;5028739;28;20207;-67
2023/11/25 01:07:53;;;;;;;8.65;1.10;;;2.80;99.90;;;;;;5040493;28;20765;-67
2023/11/25 01:10:21;;;;;;;7.78;1.00;;;2.80;99.90;;;;;;5045487;28;20657;-64
2023/11/25 01:12:49;;;;;;;6.95;1.17;;;2.80;99.90;;;;;;5049533;28;20212;-67
2023/11/25 01:15:19;;;;;;;7.95;0.70;;;2.80;99.90;;;;;;5049036;28;20240;-68
2023/11/25 01:17:47;;;;;;;7.07;1.05;;;2.80;99.90;;;;;;5048563;28;20228;-68
2023/11/25 01:20:15;;;;;;;7.68;0.95;;;2.80;99.90;;;;;;5048009;28;20783;-68
2023/11/25 01:22:47;;;;;;;8.52;1.25;;;2.80;99.90;;;;;;5047749;28;20227;-66
2023/11/25 01:25:15;;;;;;;7.55;1.10;;;2.80;99.90;;;;;;5047748;28;20651;-68
2023/11/25 01:27:43;;;;;;;6.68;0.82;;;2.60;99.90;;;;;;5048077;28;20319;-68
2023/11/25 01:30:13;;;;;;;6.90;0.80;;;2.60;99.90;;;;;;5047876;28;20315;-67
2023/11/25 01:32:40;;;;;;;7.30;1.05;;;2.50;99.90;;;;;;5048060;28;20683;-68
2023/11/25 01:35:09;;;;;;;6.07;0.95;;;2.40;99.90;;;;;;5047185;28;20215;-67
2023/11/25 01:37:37;;;;;;;7.10;0.95;;;2.40;99.90;;;;;;5047682;28;20262;-67
2023/11/25 01:40:12;;;;;;;10.55;1.90;;;2.30;99.90;;;;;;5047225;28;20239;-68
2023/11/25 01:42:40;;;;;;;7.70;1.23;;;2.30;99.90;;;;;;5047875;28;20199;-68
2023/11/25 01:45:09;;;;;;;7.13;0.93;;;2.30;99.90;;;;;;5051317;28;20203;-66
2023/11/25 01:47:37;;;;;;;6.40;1.20;;;2.20;99.90;;;;;;5047380;28;20293;-67
2023/11/25 01:50:07;;;;;;;8.07;1.23;;;2.20;99.90;;;;;;5046905;28;20634;-67
2023/11/25 01:52:36;;;;;;;9.18;1.02;;;2.20;99.90;;;;;;5049234;28;20230;-68
2023/11/25 01:55:08;;;;;;;7.35;1.20;;;2.30;99.90;;;;;;5048273;28;20222;-67
2023/11/25 01:57:37;;;;;;;8.38;1.08;;;2.20;99.90;;;;;;5048911;28;20274;-68
2023/11/25 02:00:09;;;;;;;11.03;1.30;;;2.20;99.90;;;;;;5011902;28;1071148;-68
2023/11/25 02:02:37;;;;;;;7.07;1.00;;;2.10;99.90;;;;;;5049896;28;20218;-67
2023/11/25 02:05:07;;;;;;;7.22;1.20;;;2.20;99.90;;;;;;5049196;28;20288;-67
2023/11/25 02:07:36;;;;;;;12.43;1.25;;;2.20;99.90;;;;;;5050164;28;20293;-67
2023/11/25 02:10:09;;;;;;;10.13;1.40;;;2.20;99.90;;;;;;5049385;28;20234;-68
2023/11/25 02:12:38;;;;;;;9.05;1.40;;;2.20;99.90;;;;;;5049684;28;20211;-68
2023/11/25 02:15:11;;;;;;;8.13;1.20;;;2.20;99.90;;;;;;5048791;28;20260;-67
2023/11/25 02:17:41;;;;;;;8.27;1.60;;;2.10;99.90;;;;;;5049902;28;20467;-68
2023/11/25 02:20:13;;;;;;;7.75;1.42;;;2.10;99.90;;;;;;5049214;28;20281;-66
2023/11/25 02:22:43;;;;;;;6.30;1.10;;;2.10;99.90;;;;;;5049425;28;20207;-68
2023/11/25 02:25:14;;;;;;;7.55;1.65;;;2.10;99.90;;;;;;5049211;28;20216;-68
2023/11/25 02:27:42;;;;;;;10.80;1.80;;;2.10;99.90;;;;;;5049255;28;20202;-66
2023/11/25 02:30:12;;;;;;;8.10;1.98;;;2.00;99.90;;;;;;5049047;28;20313;-67
2023/11/25 02:32:40;;;;;;;9.90;1.50;;;1.90;99.90;;;;;;5049562;28;20210;-66
2023/11/25 02:35:09;;;;;;;8.15;1.40;;;1.90;99.90;;;;;;5048773;28;20285;-68
2023/11/25 02:37:37;;;;;;;10.57;2.10;;;1.90;99.90;;;;;;5049344;28;20691;-67
2023/11/25 02:40:09;;;;;;;7.15;1.38;;;1.90;99.90;;;;;;5048649;28;20234;-66
2023/11/25 02:42:39;;;;;;;9.90;1.38;;;1.80;99.90;;;;;;5049151;28;20212;-66
2023/11/25 02:45:08;;;;;;;7.55;1.60;;;1.70;99.90;;;;;;5048493;28;20201;-67
2023/11/25 02:47:37;;;;;;;9.80;1.27;;;1.80;99.90;;;;;;5049115;28;20205;-66
2023/11/25 02:50:07;;;;;;;7.28;1.20;;;1.80;99.90;;;;;;5048341;28;20223;-66
2023/11/25 02:52:35;;;;;;;7.20;1.15;;;1.80;99.90;;;;;;5048728;28;20262;-66
2023/11/25 02:55:04;;;;;;;14.63;1.83;;;1.80;99.90;;;;;;5048622;28;20221;-66
2023/11/25 02:57:32;;;;;;;7.45;1.45;;;1.80;99.90;;;;;;5049082;28;20663;-70
2023/11/25 03:00:10;;;;;;;8.63;1.40;;;1.80;99.90;;;;;;5048349;28;20229;-67
2023/11/25 03:02:38;;;;;;;6.95;1.50;;;1.70;99.90;;;;;;5048380;28;20211;-65
2023/11/25 03:05:08;;;;;;;7.00;1.25;;;1.80;99.90;;;;;;5047998;28;20291;-65
2023/11/25 03:07:36;;;;;;;12.45;1.77;;;1.70;99.90;;;;;;5048817;28;20274;-66
2023/11/25 03:10:04;;;;;;;9.25;1.52;;;1.70;99.90;;;;;;5048545;28;20225;-65
2023/11/25 03:12:32;;;;;;;6.47;1.40;;;1.80;99.90;;;;;;5048815;28;20350;-66
2023/11/25 03:15:02;;;;;;;9.45;1.60;;;1.70;99.90;;;;;;5047932;28;20260;-66
2023/11/25 03:17:30;;;;;;;9.05;1.83;;;1.80;99.90;;;;;;5048717;28;20207;-68
2023/11/25 03:19:58;;;;;;;7.28;1.63;;;1.80;99.90;;;;;;5048124;28;20955;-68
2023/11/25 03:22:26;;;;;;;7.78;1.45;;;1.80;99.90;;;;;;5048699;28;20289;-64
2023/11/25 03:24:54;;;;;;;7.43;1.90;;;1.90;99.90;;;;;;5047928;28;20221;-69
2023/11/25 03:27:22;;;;;;;11.38;2.17;;;2.00;99.90;;;;;;5048260;28;20203;-66
2023/11/25 03:29:50;;;;;;;7.07;1.48;;;2.10;99.90;;;;;;5048136;28;20226;-67
2023/11/25 03:32:19;;;;;;;7.85;1.52;;;2.10;99.90;;;;;;5048293;28;20229;-66
2023/11/25 03:34:47;;;;;;;8.38;1.45;;;2.10;99.90;;;;;;5047482;28;20698;-66
2023/11/25 03:37:15;;;;;;;13.45;2.13;;;2.20;99.90;;;;;;5048197;28;20615;-66
2023/11/25 03:39:43;;;;;;;9.57;2.08;;;2.20;99.90;;;;;;5047458;28;20244;-68
2023/11/25 03:42:11;;;;;;;7.35;1.50;;;2.20;99.90;;;;;;5048245;28;20230;-65
2023/11/25 03:44:40;;;;;;;20.23;5.35;;;2.10;99.90;;;;;;5046736;28;20210;-66
2023/11/25 03:47:10;;;;;;;10.88;2.47;;;2.10;99.90;;;;;;5047836;28;20235;-67
2023/11/25 03:49:39;;;;;;;10.82;2.10;;;2.10;99.90;;;;;;5047514;28;20230;-67
2023/11/25 03:52:07;;;;;;;12.60;2.10;;;2.10;99.90;;;;;;5048380;28;20209;-68
2023/11/25 03:54:35;;;;;;;8.57;1.70;;;2.10;99.90;;;;;;5046315;28;20214;-68
2023/11/25 03:57:03;;;;;;;7.15;1.80;;;2.10;99.90;;;;;;5047724;28;20912;-67
2023/11/25 03:59:31;;;;;;;8.93;2.13;;;2.10;99.90;;;;;;5047174;28;20742;-66
2023/11/25 04:01:59;;;;;;;10.30;2.13;;;2.00;99.90;;;;;;5047915;28;20215;-68
2023/11/25 04:04:27;;;;;;;9.35;1.92;;;2.00;99.90;;;;;;5047359;28;20430;-68
2023/11/25 04:06:57;;;;;;;8.35;2.22;;;2.00;99.90;;;;;;5047284;28;20306;-67
2023/11/25 04:09:25;;;;;;;9.73;2.10;;;1.90;99.90;;;;;;5048064;28;20306;-67
2023/11/25 04:11:53;;;;;;;8.35;2.08;;;1.80;99.90;;;;;;5047900;28;20991;-67
2023/11/25 04:14:21;;;;;;;7.15;2.10;;;1.80;99.90;;;;;;5046401;28;20210;-66
2023/11/25 04:16:52;;;;;;;9.02;2.33;;;1.80;99.90;;;;;;5047059;28;20213;-67
2023/11/25 04:19:20;;;;;;;12.50;2.50;;;1.80;99.90;;;;;;5046667;28;20230;-68
2023/11/25 04:21:50;;;;;;;8.23;2.00;;;1.80;99.90;;;;;;5046549;28;20707;-68
2023/11/25 04:24:19;;;;;;;8.77;1.85;;;1.80;99.90;;;;;;5045592;28;20202;-68
2023/11/25 04:26:47;;;;;;;7.47;1.85;;;1.80;99.90;;;;;;5046370;28;20689;-66
2023/11/25 04:29:15;;;;;;;8.27;1.73;;;1.80;99.90;;;;;;5045941;28;20644;-67
2023/11/25 04:31:43;;;;;;;14.23;2.05;;;1.90;99.90;;;;;;5046548;28;20212;-66
2023/11/25 04:34:11;;;;;;;9.07;1.95;;;1.90;99.90;;;;;;5045552;28;20208;-67
2023/11/25 04:36:40;;;;;;;7.72;1.90;;;1.90;99.90;;;;;;5046338;28;20216;-67
2023/11/25 04:39:08;;;;;;;7.38;1.80;;;1.80;99.90;;;;;;5045894;28;21586;-67
2023/11/25 04:41:40;;;;;;;12.35;2.33;;;1.80;99.90;;;;;;5045255;28;20210;-67
2023/11/25 04:44:08;;;;;;;10.77;1.70;;;1.80;99.90;;;;;;5046676;28;20209;-68
2023/11/25 04:46:36;;;;;;;9.30;1.92;;;1.70;99.90;;;;;;5047446;28;20261;-67
2023/11/25 04:49:05;;;;;;;7.95;1.65;;;1.70;99.90;;;;;;5046906;28;20207;-68
2023/11/25 04:51:34;;;;;;;9.27;1.75;;;1.70;99.90;;;;;;5047334;28;20696;-67
2023/11/25 04:54:02;;;;;;;8.43;1.50;;;1.70;99.90;;;;;;5046525;28;20297;-67
2023/11/25 04:56:30;;;;;;;7.50;1.60;;;1.60;99.90;;;;;;5047546;28;20288;-67
2023/11/25 04:58:59;;;;;;;8.15;1.40;;;1.60;99.90;;;;;;5046487;28;20214;-67
2023/11/25 05:01:27;;;;;;;7.00;1.40;;;1.60;99.90;;;;;;5047292;28;20279;-66
2023/11/25 05:03:55;;;;;;;9.23;1.40;;;1.50;99.90;;;;;;5046540;28;20383;-65
2023/11/25 05:06:23;;;;;;;7.93;1.15;;;1.50;99.90;;;;;;5046378;28;20250;-67
2023/11/25 05:08:51;;;;;;;10.43;1.90;;;1.50;99.90;;;;;;5045779;28;20299;-67
2023/11/25 05:11:19;;;;;;;10.38;2.25;;;1.50;99.90;;;;;;5051182;28;20208;-67
2023/11/25 05:13:47;;;;;;;7.40;1.42;;;1.50;99.90;;;;;;5047026;28;20225;-66
2023/11/25 05:16:19;;;;;;;8.00;1.73;;;1.50;99.90;;;;;;5050746;28;20201;-67
2023/11/25 05:18:47;;;;;;;7.05;1.60;;;1.40;99.90;;;;;;5049985;28;20220;-66
2023/11/25 05:21:15;;;;;;;7.18;1.30;;;1.40;99.90;;;;;;5049792;28;20253;-64
2023/11/25 05:23:43;;;;;;;9.18;1.58;;;1.40;99.90;;;;;;5049368;28;20261;-67
2023/11/25 05:26:12;;;;;;;7.22;1.45;;;1.40;99.90;;;;;;5049109;28;20203;-67
2023/11/25 05:28:40;;;;;;;6.85;1.27;;;1.40;99.90;;;;;;5049094;28;20718;-67
2023/11/25 05:31:08;;;;;;;9.00;1.35;;;1.40;99.90;;;;;;5049246;28;20651;-68
2023/11/25 05:33:37;;;;;;;8.80;1.45;;;1.40;99.90;;;;;;5049037;28;20222;-68
2023/11/25 05:36:06;;;;;;;7.88;1.40;;;1.30;99.90;;;;;;5049213;28;20205;-67
2023/11/25 05:38:35;;;;;;;9.75;1.70;;;1.20;99.90;;;;;;5048831;28;20206;-69
2023/11/25 05:41:04;;;;;;;7.65;1.10;;;1.30;99.90;;;;;;5049343;28;20276;-67
2023/11/25 05:43:32;;;;;;;7.22;1.67;;;1.20;99.90;;;;;;5049432;28;20210;-68
2023/11/25 05:46:00;;;;;;;8.65;1.60;;;1.20;99.90;;;;;;5048449;28;20255;-64
2023/11/25 05:48:28;;;;;;;9.05;1.55;;;1.30;99.90;;;;;;5049947;28;20730;-64
2023/11/25 05:50:57;;;;;;;8.82;1.55;;;1.30;99.90;;;;;;5050441;28;20579;-66
2023/11/25 05:53:25;;;;;;;10.55;1.85;;;1.30;99.90;;;;;;5050018;28;20202;-66
2023/11/25 05:55:55;;;;;;;9.50;1.92;;;1.30;99.90;;;;;;5048840;28;20239;-67
2023/11/25 05:58:23;;;;;;;9.52;1.42;;;1.30;99.90;;;;;;5048124;28;20715;-68
2023/11/25 06:00:51;;;;;;;9.85;1.60;;;1.30;99.90;;;;;;5048932;28;20617;-69
2023/11/25 06:03:19;;;;;;;8.02;1.85;;;1.20;99.90;;;;;;5049449;28;20210;-68
2023/11/25 06:05:47;;;;;;;9.35;1.77;;;1.10;99.90;;;;;;5047836;28;20322;-66
2023/11/25 06:08:17;;;;;;;11.38;2.38;;;1.10;99.90;;;;;;5053904;28;20213;-69
2023/11/25 06:10:45;;;;;;;10.38;1.75;;;1.20;99.90;;;;;;5048431;28;20310;-66
2023/11/25 06:13:15;;;;;;;9.82;1.77;;;1.20;99.90;;;;;;5048683;28;20661;-67
2023/11/25 06:15:43;;;;;;;8.60;1.67;;;1.30;99.90;;;;;;5048068;28;20247;-67
2023/11/25 06:18:13;;;;;;;9.10;1.70;;;1.40;99.90;;;;;;5047929;28;20342;-66
2023/11/25 06:20:41;;;;;;;9.85;1.95;;;1.50;99.90;;;;;;5048689;28;20646;-67
2023/11/25 06:23:09;;;;;;;8.70;1.55;;;1.50;99.90;;;;;;5048200;28;20568;-66
2023/11/25 06:25:38;;;;;;;8.00;1.55;;;1.60;99.90;;;;;;5046069;28;20239;-67
2023/11/25 06:28:06;;;;;;;7.90;1.25;;;1.60;99.90;;;;;;5049043;28;20255;-67
2023/11/25 06:30:34;;;;;;;7.50;1.40;;;1.60;99.90;;;;;;5049313;28;20701;-68
2023/11/25 06:33:03;;;;;;;7.68;1.40;;;1.70;99.90;;;;;;5048286;28;20703;-66
2023/11/25 06:35:31;;;;;;;10.85;1.77;;;1.80;99.90;;;;;;5047876;28;20211;-66
2023/11/25 06:37:59;;;;;;;9.98;1.58;;;1.70;99.90;;;;;;5047873;28;20692;-65
2023/11/25 06:40:27;;;;;;;10.45;1.63;;;1.80;99.90;;;;;;5048128;28;20321;-67
2023/11/25 06:42:57;;;;;;;13.52;1.70;;;1.80;99.90;;;;;;5048226;28;20213;-67
2023/11/25 06:45:26;;;;;;;7.37;1.70;;;1.90;99.90;;;;;;5046299;28;20263;-66
2023/11/25 06:47:54;;;;;;;10.93;1.92;;;2.00;99.90;;;;;;5038391;28;20969;-66
2023/11/25 06:50:22;;;;;;;8.57;1.20;;;2.00;99.90;;;;;;5039684;28;20224;-68
2023/11/25 06:52:50;;;;;;;9.68;1.70;;;2.00;99.90;;;;;;5047726;28;20665;-68
2023/11/25 06:55:19;;;;;;;10.93;1.60;;;2.10;99.90;;;;;;5047400;28;20220;-68
2023/11/25 06:57:49;;;;;;;9.85;1.92;;;2.20;99.90;;;;;;5041026;28;20665;-66
2023/11/25 07:00:19;;;;;;;7.30;1.60;;;2.10;99.90;;;;;;5043051;28;20618;-66
2023/11/25 07:02:48;;;;;;;7.15;1.23;;;2.20;99.90;;;;;;5046656;28;20286;-68
2023/11/25 07:05:16;;;;;;;7.57;1.33;;;2.20;99.90;;;;;;5045463;28;21576;-66
2023/11/25 07:07:45;;;;;;;10.10;1.67;;;2.20;99.90;;;;;;5047892;28;20528;-65
2023/11/25 07:10:14;;;;;;;11.90;2.50;;;2.30;99.90;;;;;;5048416;28;20847;-65
2023/11/25 07:12:42;;;;;;;6.70;1.50;;;2.30;99.90;;;;;;5049137;28;20456;-65
2023/11/25 07:15:11;;;;;;;9.03;1.70;;;2.40;99.90;;;;;;5048231;28;20444;-65
2023/11/25 07:17:41;;;;;;;9.20;1.70;;;2.30;99.90;;;;;;5048839;28;20456;-65
2023/11/25 07:20:18;;;;;;;9.93;2.13;;;2.30;99.90;;;;;;5048197;28;20533;-66
2023/11/25 07:22:47;;;;;;;9.13;1.70;;;2.40;99.90;;;;;;5049030;28;20562;-65
2023/11/25 07:25:15;;;;;;;7.17;1.23;;;2.40;99.90;;;;;;5048827;28;20448;-65
2023/11/25 07:27:44;;;;;;;7.68;1.52;;;2.50;99.90;;;;;;5049461;28;20439;-66
2023/11/25 07:30:14;;;;;;;7.30;1.27;;;2.50;99.90;;;;;;5048606;28;20706;-64
2023/11/25 07:32:44;;;;;;;7.93;1.50;;;2.50;99.90;;;;;;5048512;28;20444;-65
2023/11/25 07:35:13;;;;;;;8.67;1.30;;;2.50;99.90;;;;;;5047270;28;20240;-63
2023/11/25 07:37:41;;;;;;;8.50;1.13;;;2.60;99.90;;;;;;5047946;28;20440;-67
2023/11/25 07:40:14;;;;;;;11.33;1.83;;;2.60;99.90;;;;;;5047748;28;20849;-66
2023/11/25 07:42:45;;;;;;;7.10;1.05;;;2.60;99.90;;;;;;5047950;28;21032;-64
2023/11/25 07:45:14;;;;;;;8.70;1.50;;;2.60;99.90;;;;;;5047664;28;20656;-66
2023/11/25 07:47:44;;;;;;;8.80;1.60;;;2.70;99.90;;;;;;5048188;28;20444;-67
2023/11/25 07:50:12;;;;;;;7.80;1.60;;;2.80;99.90;;;;;;5046451;28;20324;-65
2023/11/25 07:52:40;;;;;;;9.23;1.33;;;2.80;99.90;;;;;;5045877;28;20439;-64
2023/11/25 07:55:09;;;;;;;10.80;1.23;;;2.80;99.90;;;;;;5044218;28;20207;-65
2023/11/25 07:57:38;;;;;;;6.70;1.40;;;2.70;99.90;;;;;;5050264;28;20226;-63
2023/11/25 08:00:07;;;;;;;8.07;1.30;;;2.70;99.90;;;;;;5049256;28;20239;-66
2023/11/25 08:02:35;;;;;;;7.10;1.10;;;2.70;99.90;;;;;;5046748;28;20227;-66
2023/11/25 08:05:05;;;;;;;8.40;1.20;;;2.70;99.90;;;;;;5045773;28;21011;-68
2023/11/25 08:07:33;;;;;;;8.30;1.30;;;2.70;99.90;;;;;;5046209;28;20641;-67
2023/11/25 08:10:03;;;;;;;7.30;1.27;;;2.70;99.90;;;;;;5045739;28;20802;-66
2023/11/25 08:12:31;;;;;;;9.20;1.45;;;2.80;99.90;;;;;;5046758;28;20202;-66
2023/11/25 08:14:59;;;;;;;8.93;2.45;;;2.90;99.90;;;;;;5045962;28;20267;-66
2023/11/25 08:17:29;;;;;;;7.07;0.80;;;2.90;99.90;;;;;;5045431;28;20208;-66
2023/11/25 08:19:57;;;;;;;7.75;1.20;;;3.00;99.90;;;;;;5046684;28;20232;-66
2023/11/25 08:22:27;;;;;;;6.90;0.98;;;3.10;99.90;;;;;;5047582;28;20581;-66
2023/11/25 08:24:57;;;;;;;7.90;1.27;;;3.20;99.90;;;;;;5047432;28;20208;-64
2023/11/25 08:27:25;;;;;;;8.70;1.30;;;3.20;99.90;;;;;;5046808;28;20224;-67
2023/11/25 08:29:53;;;;;;;10.47;1.23;;;3.30;99.90;;;;;;5046118;28;20464;-66
2023/11/25 08:32:21;;;;;;;8.30;1.55;;;3.40;99.90;;;;;;5046614;28;20450;-66
2023/11/25 08:34:49;;;;;;;9.07;1.23;;;3.40;99.90;;;;;;5045964;28;20213;-65
2023/11/25 08:37:17;;;;;;;6.97;1.23;;;3.50;99.90;;;;;;5046454;28;20497;-64
2023/11/25 08:39:47;;;;;;;7.17;1.30;;;3.60;99.90;;;;;;5045623;28;20494;-68
2023/11/25 08:42:15;;;;;;;8.23;1.60;;;3.80;99.90;;;;;;5045711;28;21003;-69
2023/11/25 08:44:45;;;;;;;8.10;1.20;;;3.90;99.90;;;;;;5045719;28;20440;-68
2023/11/25 08:47:13;;;;;;;7.63;1.33;;;4.10;99.90;;;;;;5046220;28;20440;-67
2023/11/25 08:49:41;;;;;;;10.60;1.57;;;4.40;99.90;;;;;;5047255;28;20468;-69
2023/11/25 08:52:09;;;;;;;11.40;1.40;;;4.30;99.90;;;;;;5050219;28;20447;-70
2023/11/25 08:54:37;;;;;;;8.50;1.50;;;4.30;99.90;;;;;;5049600;28;20439;-68
2023/11/25 08:57:08;;;;;;;6.50;1.30;;;4.20;99.90;;;;;;5055219;28;20622;-69
2023/11/25 08:59:37;;;;;;;12.23;1.20;;;4.00;99.90;;;;;;5050230;28;20467;-68
2023/11/25 09:02:05;;;;;;;6.77;0.80;;;4.10;99.90;;;;;;5050280;28;20475;-67
2023/11/25 09:04:36;;;;;;;6.80;1.03;;;4.10;99.90;;;;;;5049652;28;20570;-68
2023/11/25 09:07:07;;;;;;;8.10;1.13;;;4.00;99.90;;;;;;5049258;28;20452;-67
2023/11/25 09:09:35;;;;;;;5.97;0.80;;;3.90;99.90;;;;;;5048223;28;20531;-66
2023/11/25 09:12:04;;;;;;;6.97;1.10;;;3.70;99.90;;;;;;5048402;28;20229;-69
2023/11/25 09:14:33;;;;;;;6.93;1.10;;;3.80;99.90;;;;;;5048374;28;20443;-69
2023/11/25 09:17:01;;;;;;;8.40;1.20;;;3.90;99.90;;;;;;5049725;28;20295;-68
2023/11/25 09:19:28;;;;;;;7.93;1.40;;;4.10;99.90;;;;;;5049518;28;20498;-65
2023/11/25 09:21:56;;;;;;;8.93;1.47;;;4.10;99.90;;;;;;5049566;28;20584;-70
2023/11/25 09:24:24;;;;;;;9.97;1.17;;;4.20;99.90;;;;;;5048700;28;20448;-69
2023/11/25 09:26:54;;;;;;;7.37;1.50;;;4.40;99.90;;;;;;5049830;28;20508;-68
2023/11/25 09:29:22;;;;;;;12.67;1.57;;;4.40;99.90;;;;;;5049059;28;20826;-70
2023/11/25 09:31:51;;;;;;;12.30;2.50;;;4.60;99.90;;;;;;5049573;28;20435;-68
2023/11/25 09:34:19;;;;;;;11.37;1.40;;;4.70;99.90;;;;;;5048434;28;20448;-68
2023/11/25 09:36:47;;;;;;;11.80;1.90;;;4.50;99.90;;;;;;5049091;28;20502;-70
2023/11/25 09:39:15;;;;;;;11.33;3.20;;;4.30;99.90;;;;;;5046936;28;20476;-71
2023/11/25 09:41:44;;;;;;;17.40;3.00;;;4.20;99.90;;;;;;5050300;28;20541;-70
2023/11/25 09:44:14;;;;;;;9.10;1.83;;;4.10;99.90;;;;;;5048814;28;20875;-67
2023/11/25 09:46:44;;;;;;;9.03;2.10;;;4.30;99.90;;;;;;5050046;28;20501;-68
2023/11/25 09:49:13;;;;;;;12.93;3.53;;;4.30;99.90;;;;;;5049538;28;20521;-66
2023/11/25 09:51:46;;;;;;;9.33;1.30;;;4.20;99.90;;;;;;5050288;28;20622;-64
2023/11/25 09:54:20;;;;;;;8.07;1.63;;;4.10;99.90;;;;;;5049535;28;20505;-69
2023/11/25 09:56:50;;;;;;;10.47;1.90;;;4.20;99.90;;;;;;5050039;28;20535;-70
2023/11/25 09:59:19;;;;;;;9.40;1.40;;;4.30;99.90;;;;;;5049564;28;21008;-69
2023/11/25 10:01:48;;;;;;;11.30;2.00;;;4.40;99.90;;;;;;5050133;28;20448;-68
2023/11/25 10:04:19;;;;;;;7.73;1.77;;;4.60;99.90;;;;;;5048841;28;20443;-69
2023/11/25 10:06:48;;;;;;;8.50;1.80;;;4.90;99.90;;;;;;5049488;28;20444;-69
2023/11/25 10:09:16;;;;;;;13.80;2.30;;;5.00;99.90;;;;;;5049328;28;20463;-67
2023/11/25 10:11:44;;;;;;;13.30;2.23;;;5.20;99.90;;;;;;5049918;28;20966;-67
2023/11/25 10:14:14;;;;;;;12.00;1.90;;;5.40;99.90;;;;;;5049601;28;20451;-69
2023/11/25 10:16:46;;;;;;;12.97;2.63;;;5.60;99.90;;;;;;5049668;28;20785;-67
2023/11/25 10:19:20;;;;;;;9.50;1.50;;;5.80;99.90;;;;;;5049098;28;20468;-69
2023/11/25 10:21:49;;;;;;;11.40;2.33;;;5.90;99.90;;;;;;5049582;28;20454;-67
2023/11/25 10:24:20;;;;;;;12.73;3.30;;;5.80;99.90;;;;;;5045288;28;20454;-69
2023/11/25 10:26:50;;;;;;;10.03;1.70;;;5.60;99.90;;;;;;5049293;28;20566;-67
2023/11/25 10:29:19;;;;;;;9.60;2.10;;;5.20;99.90;;;;;;5048538;28;20468;-67
2023/11/25 10:31:55;;;;;;;11.70;1.83;;;5.00;99.90;;;;;;5049005;28;20440;-68
2023/11/25 10:34:26;;;;;;;11.67;3.37;;;4.90;99.90;;;;;;5048494;28;20432;-68
2023/11/25 10:36:54;;;;;;;14.27;2.10;;;4.90;99.90;;;;;;5048827;28;20455;-67
2023/11/25 10:39:24;;;;;;;12.37;2.30;;;4.80;99.90;;;;;;5048703;28;20539;-68
2023/11/25 10:41:52;;;;;;;11.03;1.70;;;4.80;99.90;;;;;;5051438;28;20442;-67
2023/11/25 10:44:21;;;;;;;13.03;1.90;;;4.70;99.90;;;;;;5048248;28;20575;-67
2023/11/25 10:46:48;;;;;;;12.37;2.23;;;4.80;99.90;;;;;;5048530;28;20447;-67
2023/11/25 10:49:18;;;;;;;12.40;2.90;;;5.00;99.90;;;;;;5048452;28;20464;-67
2023/11/25 10:51:47;;;;;;;10.30;2.07;;;5.10;99.90;;;;;;5048946;28;20954;-67
2023/11/25 10:54:18;;;;;;;9.30;1.90;;;5.10;99.90;;;;;;5047486;28;20463;-67
2023/11/25 10:56:47;;;;;;;11.63;2.50;;;5.10;99.90;;;;;;5048998;28;20955;-67
2023/11/25 10:59:17;;;;;;;10.70;1.77;;;5.00;99.90;;;;;;5048330;28;20487;-68
2023/11/25 11:01:49;;;;;;;12.30;2.83;;;5.20;99.90;;;;;;5048745;28;20451;-68
2023/11/25 11:04:26;;;;;;;10.67;1.40;;;5.30;99.90;;;;;;5048112;28;20511;-69
2023/11/25 11:06:59;;;;;;;7.50;1.80;;;5.30;99.90;;;;;;5053047;28;21030;-66
2023/11/25 11:09:30;;;;;;;11.57;2.83;;;5.20;99.90;;;;;;5047348;28;20464;-67
2023/11/25 11:12:05;;;;;;;11.00;2.27;;;5.10;99.90;;;;;;5047457;28;20450;-65
2023/11/25 11:14:37;;;;;;;9.70;2.20;;;5.10;99.90;;;;;;5043577;28;20646;-67
2023/11/25 11:17:12;;;;;;;14.13;2.50;;;5.00;99.90;;;;;;5040131;28;20436;-67
2023/11/25 11:19:42;;;;;;;13.80;3.53;;;5.00;99.90;;;;;;5047727;28;20474;-68
2023/11/25 11:22:13;;;;;;;11.77;1.90;;;5.00;99.90;;;;;;5048915;28;20462;-68
2023/11/25 11:24:59;;;;;;;15.30;2.53;;;5.20;99.90;;;;;;5047849;28;20577;-68
2023/11/25 11:27:36;;;;;;;12.07;1.97;;;5.40;99.90;;;;;;5048600;28;20542;-68
2023/11/25 11:30:15;;;;;;;10.27;1.90;;;5.30;99.90;;;;;;5046897;28;21125;-66
2023/11/25 11:32:44;;;;;;;9.43;1.90;;;5.40;99.90;;;;;;5045961;28;20877;-67
2023/11/25 11:35:13;;;;;;;11.70;2.07;;;5.60;99.90;;;;;;5043636;28;20448;-66
2023/11/25 11:37:49;;;;;;;7.73;1.47;;;5.60;99.90;;;;;;5045377;28;20440;-68
2023/11/25 11:40:22;;;;;;;12.47;1.30;;;5.50;99.90;;;;;;5044596;28;21015;-67
2023/11/25 11:42:50;;;;;;;9.90;1.80;;;4.90;99.90;;;;;;5048115;28;20811;-67
2023/11/25 11:45:21;;;;;;;11.70;2.00;;;4.60;99.90;;;;;;5044008;28;20448;-67
2023/11/25 11:47:52;;;;;;;9.77;1.70;;;4.40;99.90;;;;;;5045783;28;20450;-69
2023/11/25 11:50:24;;;;;;;10.13;2.60;;;4.30;99.90;;;;;;5044939;28;20550;-68
2023/11/25 11:53:15;;;;;;;8.73;1.93;;;4.10;99.90;;;;;;5044896;28;20434;-67
2023/11/25 11:55:51;;;;;;;9.68;1.60;;;3.90;99.90;;;;;;5039411;28;20542;-68
2023/11/25 11:58:20;;;;;;;13.15;2.20;;;3.60;99.90;;;;;;5047365;28;20225;-68
2023/11/25 12:00:53;;;;;;;7.47;1.67;;;3.30;99.90;;;;;;5046472;28;20992;-67
2023/11/25 12:03:22;;;;;;;10.75;2.45;;;3.10;99.90;;;;;;5046148;28;20589;-68
2023/11/25 12:05:51;;;;;;;9.82;1.95;;;3.10;99.90;;;;;;5047166;28;20234;-69
2023/11/25 12:08:21;;;;;;;8.50;1.80;;;3.20;99.90;;;;;;5044939;28;20211;-69
2023/11/25 12:10:50;;;;;;;8.43;1.65;;;3.40;99.90;;;;;;5048565;28;20318;-69
2023/11/25 12:13:25;;;;;;;10.00;1.70;;;3.40;99.90;;;;;;5047698;28;20227;-70
2023/11/25 12:15:54;;;;;;;7.30;2.13;;;3.50;99.90;;;;;;5044074;28;20224;-71
2023/11/25 12:18:22;;;;;;;15.35;3.67;;;3.60;99.90;;;;;;5047148;28;20310;-67
2023/11/25 12:20:50;;;;;;;8.63;1.63;;;3.70;99.90;;;;;;5046643;28;20579;-69
2023/11/25 12:23:19;;;;;;;10.50;3.70;;;3.60;99.90;;;;;;5043935;28;20222;-68
2023/11/25 12:25:47;;;;;;;10.30;2.88;;;3.60;99.90;;;;;;5048921;28;20249;-69
2023/11/25 12:28:15;;;;;;;10.90;1.53;;;3.50;99.90;;;;;;5047533;28;20204;-67
2023/11/25 12:30:43;;;;;;;8.40;1.87;;;3.40;99.90;;;;;;5050444;28;20485;-68
2023/11/25 12:33:11;;;;;;;12.07;1.90;;;3.40;99.90;;;;;;5046956;28;20893;-69
2023/11/25 12:35:41;;;;;;;9.57;1.90;;;3.30;99.90;;;;;;5050972;28;20206;-70
2023/11/25 12:38:10;;;;;;;7.38;1.15;;;3.30;99.90;;;;;;5047061;28;20784;-67
2023/11/25 12:40:45;;;;;;;9.93;1.67;;;3.40;99.90;;;;;;5048874;28;20254;-65
2023/11/25 12:43:14;;;;;;;8.50;1.70;;;3.40;99.90;;;;;;5051538;28;20215;-66
2023/11/25 12:45:43;;;;;;;8.20;1.70;;;3.40;99.90;;;;;;5048128;28;20774;-67
2023/11/25 12:48:15;;;;;;;9.75;1.77;;;3.40;99.90;;;;;;5050904;28;20213;-67
2023/11/25 12:51:01;;;;;;;9.18;1.45;;;3.40;99.90;;;;;;5048934;28;20227;-66
2023/11/25 12:53:29;;;;;;;8.15;1.77;;;3.50;99.90;;;;;;5051023;28;20345;-68
2023/11/25 12:55:59;;;;;;;9.45;1.73;;;3.60;99.90;;;;;;5050616;28;20258;-66
2023/11/25 12:58:28;;;;;;;9.63;1.52;;;3.60;99.90;;;;;;5049935;28;20246;-64
2023/11/25 13:00:57;;;;;;;11.13;1.55;;;3.70;99.90;;;;;;5051261;28;20689;-65
2023/11/25 13:03:26;;;;;;;9.10;1.60;;;3.80;99.90;;;;;;5051328;28;20244;-66